sensor_id;sensor_type;location;lat;lon;timestamp;pressure;altitude;pressure_sealevel;temperature;humidity
72855;BME280;60991;51.278;22.550;2023-03-22T00:00:55;99170.31;;;9.01;73.67
72855;BME280;60991;51.278;22.550;2023-03-22T00:02:25;99168.47;;;9.02;73.82
72855;BME280;60991;51.278;22.550;2023-03-22T00:03:56;99167.78;;;8.95;73.75
72855;BME280;60991;51.278;22.550;2023-03-22T00:05:26;99163.53;;;8.94;73.95
72855;BME280;60991;51.278;22.550;2023-03-22T00:06:56;99155.56;;;8.94;73.73
72855;BME280;60991;51.278;22.550;2023-03-22T00:08:27;99163.28;;;8.95;73.98
72855;BME280;60991;51.278;22.550;2023-03-22T00:09:57;99158.34;;;8.99;73.93
72855;BME280;60991;51.278;22.550;2023-03-22T00:11:27;99149.72;;;9.03;74.12
72855;BME280;60991;51.278;22.550;2023-03-22T00:12:58;99148.53;;;9.11;73.29
72855;BME280;60991;51.278;22.550;2023-03-22T00:14:28;99150.47;;;9.16;73.26
72855;BME280;60991;51.278;22.550;2023-03-22T00:15:58;99143.47;;;9.21;73.34
72855;BME280;60991;51.278;22.550;2023-03-22T00:17:29;99152.88;;;9.29;73.07
72855;BME280;60991;51.278;22.550;2023-03-22T00:18:59;99146.06;;;9.33;72.87
72855;BME280;60991;51.278;22.550;2023-03-22T00:20:29;99146.97;;;9.38;72.39
72855;BME280;60991;51.278;22.550;2023-03-22T00:21:59;99144.91;;;9.41;72.08
72855;BME280;60991;51.278;22.550;2023-03-22T00:23:30;99152.38;;;9.44;72.05
72855;BME280;60991;51.278;22.550;2023-03-22T00:25:00;99144.19;;;9.45;72.00
72855;BME280;60991;51.278;22.550;2023-03-22T00:26:31;99143.88;;;9.42;72.38
72855;BME280;60991;51.278;22.550;2023-03-22T00:28:01;99138.78;;;9.40;71.84
72855;BME280;60991;51.278;22.550;2023-03-22T00:29:31;99142.94;;;9.36;71.76
72855;BME280;60991;51.278;22.550;2023-03-22T00:31:02;99146.53;;;9.30;72.21
72855;BME280;60991;51.278;22.550;2023-03-22T00:32:34;99143.31;;;9.28;72.04
72855;BME280;60991;51.278;22.550;2023-03-22T00:34:04;99135.84;;;9.25;72.34
72855;BME280;60991;51.278;22.550;2023-03-22T00:35:34;99140.91;;;9.26;71.92
72855;BME280;60991;51.278;22.550;2023-03-22T00:37:04;99141.47;;;9.28;72.27
72855;BME280;60991;51.278;22.550;2023-03-22T00:38:35;99136.97;;;9.29;72.50
72855;BME280;60991;51.278;22.550;2023-03-22T00:40:11;99134.09;;;9.30;71.95
72855;BME280;60991;51.278;22.550;2023-03-22T00:41:42;99143.19;;;9.34;71.88
72855;BME280;60991;51.278;22.550;2023-03-22T00:43:12;99137.06;;;9.34;71.62
72855;BME280;60991;51.278;22.550;2023-03-22T00:44:42;99143.41;;;9.33;71.54
72855;BME280;60991;51.278;22.550;2023-03-22T00:46:14;99134.91;;;9.31;71.77
72855;BME280;60991;51.278;22.550;2023-03-22T00:47:44;99134.59;;;9.27;71.77
72855;BME280;60991;51.278;22.550;2023-03-22T00:49:14;99128.94;;;9.24;71.71
72855;BME280;60991;51.278;22.550;2023-03-22T00:50:44;99134.69;;;9.21;71.57
72855;BME280;60991;51.278;22.550;2023-03-22T00:52:15;99138.72;;;9.23;71.18
72855;BME280;60991;51.278;22.550;2023-03-22T00:53:45;99141.38;;;9.23;71.50
72855;BME280;60991;51.278;22.550;2023-03-22T00:55:15;99145.88;;;9.23;71.34
72855;BME280;60991;51.278;22.550;2023-03-22T00:56:45;99135.50;;;9.21;71.38
72855;BME280;60991;51.278;22.550;2023-03-22T00:58:16;99133.09;;;9.20;71.38
72855;BME280;60991;51.278;22.550;2023-03-22T00:59:46;99140.47;;;9.18;71.10
72855;BME280;60991;51.278;22.550;2023-03-22T01:01:16;99139.91;;;9.16;70.93
72855;BME280;60991;51.278;22.550;2023-03-22T01:02:47;99142.53;;;9.16;71.23
72855;BME280;60991;51.278;22.550;2023-03-22T01:04:17;99137.94;;;9.11;70.94
72855;BME280;60991;51.278;22.550;2023-03-22T01:05:48;99142.44;;;9.11;70.83
72855;BME280;60991;51.278;22.550;2023-03-22T01:07:18;99139.69;;;9.06;70.76
72855;BME280;60991;51.278;22.550;2023-03-22T01:08:48;99136.69;;;9.02;71.11
72855;BME280;60991;51.278;22.550;2023-03-22T01:10:18;99136.34;;;8.98;70.70
72855;BME280;60991;51.278;22.550;2023-03-22T01:11:48;99137.84;;;8.94;70.45
72855;BME280;60991;51.278;22.550;2023-03-22T01:13:19;99137.78;;;8.89;70.87
72855;BME280;60991;51.278;22.550;2023-03-22T01:14:49;99133.97;;;8.85;71.11
72855;BME280;60991;51.278;22.550;2023-03-22T01:16:19;99137.88;;;8.83;71.27
72855;BME280;60991;51.278;22.550;2023-03-22T01:17:50;99135.22;;;8.83;70.79
72855;BME280;60991;51.278;22.550;2023-03-22T01:19:20;99131.78;;;8.82;70.99
72855;BME280;60991;51.278;22.550;2023-03-22T01:20:50;99137.66;;;8.84;71.07
72855;BME280;60991;51.278;22.550;2023-03-22T01:22:21;99131.31;;;8.85;71.10
72855;BME280;60991;51.278;22.550;2023-03-22T01:23:51;99124.19;;;8.86;70.63
72855;BME280;60991;51.278;22.550;2023-03-22T01:25:21;99139.03;;;8.87;70.77
72855;BME280;60991;51.278;22.550;2023-03-22T01:26:51;99129.47;;;8.86;70.96
72855;BME280;60991;51.278;22.550;2023-03-22T01:28:22;99120.72;;;8.85;70.51
72855;BME280;60991;51.278;22.550;2023-03-22T01:29:52;99118.09;;;8.85;70.57
72855;BME280;60991;51.278;22.550;2023-03-22T01:31:22;99117.06;;;8.86;70.29
72855;BME280;60991;51.278;22.550;2023-03-22T01:32:52;99117.84;;;8.87;70.22
72855;BME280;60991;51.278;22.550;2023-03-22T01:34:23;99113.38;;;8.87;69.91
72855;BME280;60991;51.278;22.550;2023-03-22T01:35:53;99116.47;;;8.84;70.40
72855;BME280;60991;51.278;22.550;2023-03-22T01:37:23;99123.03;;;8.82;69.92
72855;BME280;60991;51.278;22.550;2023-03-22T01:38:54;99109.22;;;8.80;69.86
72855;BME280;60991;51.278;22.550;2023-03-22T01:40:25;99114.41;;;8.75;69.59
72855;BME280;60991;51.278;22.550;2023-03-22T01:41:55;99114.09;;;8.71;69.96
72855;BME280;60991;51.278;22.550;2023-03-22T01:43:26;99117.78;;;8.70;69.77
72855;BME280;60991;51.278;22.550;2023-03-22T01:46:43;99110.28;;;8.67;69.77
72855;BME280;60991;51.278;22.550;2023-03-22T01:49:53;99109.72;;;8.65;69.59
72855;BME280;60991;51.278;22.550;2023-03-22T01:51:24;99102.22;;;8.62;69.87
72855;BME280;60991;51.278;22.550;2023-03-22T01:52:55;99104.28;;;8.60;69.97
72855;BME280;60991;51.278;22.550;2023-03-22T01:54:34;99107.97;;;8.59;70.12
72855;BME280;60991;51.278;22.550;2023-03-22T01:56:07;99107.75;;;8.60;69.95
72855;BME280;60991;51.278;22.550;2023-03-22T01:57:38;99104.53;;;8.58;70.42
72855;BME280;60991;51.278;22.550;2023-03-22T01:59:12;99101.06;;;8.58;69.75
72855;BME280;60991;51.278;22.550;2023-03-22T02:00:46;99108.66;;;8.54;69.56
72855;BME280;60991;51.278;22.550;2023-03-22T02:02:19;99099.91;;;8.54;69.63
72855;BME280;60991;51.278;22.550;2023-03-22T02:04:02;99102.03;;;8.52;70.11
72855;BME280;60991;51.278;22.550;2023-03-22T02:05:34;99097.53;;;8.52;69.91
72855;BME280;60991;51.278;22.550;2023-03-22T02:07:08;99098.78;;;8.50;69.82
72855;BME280;60991;51.278;22.550;2023-03-22T02:08:40;99101.44;;;8.50;69.79
72855;BME280;60991;51.278;22.550;2023-03-22T02:10:13;99106.72;;;8.50;69.48
72855;BME280;60991;51.278;22.550;2023-03-22T02:11:50;99101.31;;;8.45;69.93
72855;BME280;60991;51.278;22.550;2023-03-22T02:13:54;99098.44;;;8.46;70.48
72855;BME280;60991;51.278;22.550;2023-03-22T02:19:12;99099.25;;;8.47;69.93
72855;BME280;60991;51.278;22.550;2023-03-22T02:24:58;99101.44;;;8.50;69.38
72855;BME280;60991;51.278;22.550;2023-03-22T02:27:03;99101.91;;;8.47;69.73
72855;BME280;60991;51.278;22.550;2023-03-22T02:38:21;99094.50;;;8.14;71.79
72855;BME280;60991;51.278;22.550;2023-03-22T02:42:06;99093.69;;;8.25;71.84
72855;BME280;60991;51.278;22.550;2023-03-22T02:43:41;99090.59;;;8.28;72.12
72855;BME280;60991;51.278;22.550;2023-03-22T02:48:59;99095.06;;;8.27;72.63
72855;BME280;60991;51.278;22.550;2023-03-22T02:52:18;99090.63;;;8.40;72.22
72855;BME280;60991;51.278;22.550;2023-03-22T02:54:01;99082.69;;;8.40;72.43
72855;BME280;60991;51.278;22.550;2023-03-22T02:55:47;99085.69;;;8.43;71.62
72855;BME280;60991;51.278;22.550;2023-03-22T02:57:36;99083.38;;;8.47;71.66
72855;BME280;60991;51.278;22.550;2023-03-22T02:59:10;99080.50;;;8.48;71.57
72855;BME280;60991;51.278;22.550;2023-03-22T03:00:43;99077.28;;;8.46;71.64
72855;BME280;60991;51.278;22.550;2023-03-22T03:02:15;99078.31;;;8.45;71.39
72855;BME280;60991;51.278;22.550;2023-03-22T03:03:48;99076.13;;;8.30;71.59
72855;BME280;60991;51.278;22.550;2023-03-22T03:05:20;99083.56;;;8.22;72.75
72855;BME280;60991;51.278;22.550;2023-03-22T03:06:55;99076.78;;;8.14;72.68
72855;BME280;60991;51.278;22.550;2023-03-22T03:08:26;99077.13;;;8.06;71.64
72855;BME280;60991;51.278;22.550;2023-03-22T03:09:58;99079.28;;;7.86;72.48
72855;BME280;60991;51.278;22.550;2023-03-22T03:11:28;99073.16;;;7.74;72.57
72855;BME280;60991;51.278;22.550;2023-03-22T03:12:59;99074.44;;;7.83;72.66
72855;BME280;60991;51.278;22.550;2023-03-22T03:14:31;99071.47;;;7.91;72.51
72855;BME280;60991;51.278;22.550;2023-03-22T03:16:02;99078.09;;;7.70;72.78
72855;BME280;60991;51.278;22.550;2023-03-22T03:17:37;99077.00;;;7.48;73.96
72855;BME280;60991;51.278;22.550;2023-03-22T03:19:24;99074.13;;;7.19;74.60
72855;BME280;60991;51.278;22.550;2023-03-22T03:22:57;99074.94;;;7.20;74.36
72855;BME280;60991;51.278;22.550;2023-03-22T03:24:46;99079.38;;;7.38;73.62
72855;BME280;60991;51.278;22.550;2023-03-22T03:28:10;99083.53;;;7.15;74.20
72855;BME280;60991;51.278;22.550;2023-03-22T03:29:47;99077.25;;;6.98;74.88
72855;BME280;60991;51.278;22.550;2023-03-22T03:32:57;99077.09;;;6.93;74.75
72855;BME280;60991;51.278;22.550;2023-03-22T03:36:25;99074.38;;;7.00;74.43
72855;BME280;60991;51.278;22.550;2023-03-22T03:38:04;99076.25;;;7.11;74.04
72855;BME280;60991;51.278;22.550;2023-03-22T03:39:43;99070.25;;;7.22;73.94
72855;BME280;60991;51.278;22.550;2023-03-22T03:41:17;99078.56;;;7.37;73.43
72855;BME280;60991;51.278;22.550;2023-03-22T03:42:51;99077.44;;;7.45;72.80
72855;BME280;60991;51.278;22.550;2023-03-22T03:44:22;99081.59;;;7.52;72.41
72855;BME280;60991;51.278;22.550;2023-03-22T03:45:54;99074.84;;;7.56;72.28
72855;BME280;60991;51.278;22.550;2023-03-22T03:47:24;99075.06;;;7.55;72.26
72855;BME280;60991;51.278;22.550;2023-03-22T03:48:57;99075.88;;;7.55;72.13
72855;BME280;60991;51.278;22.550;2023-03-22T03:50:28;99077.94;;;7.53;71.53
72855;BME280;60991;51.278;22.550;2023-03-22T03:51:59;99077.94;;;7.53;71.99
72855;BME280;60991;51.278;22.550;2023-03-22T03:53:30;99080.00;;;7.51;71.58
72855;BME280;60991;51.278;22.550;2023-03-22T03:55:00;99082.41;;;7.53;71.25
72855;BME280;60991;51.278;22.550;2023-03-22T03:56:30;99084.88;;;7.36;71.68
72855;BME280;60991;51.278;22.550;2023-03-22T03:58:00;99079.28;;;6.96;72.05
72855;BME280;60991;51.278;22.550;2023-03-22T03:59:30;99083.41;;;6.74;73.40
72855;BME280;60991;51.278;22.550;2023-03-22T04:01:01;99083.59;;;6.54;74.29
72855;BME280;60991;51.278;22.550;2023-03-22T04:02:31;99083.53;;;6.42;74.30
72855;BME280;60991;51.278;22.550;2023-03-22T04:04:01;99083.53;;;6.60;74.10
72855;BME280;60991;51.278;22.550;2023-03-22T04:05:32;99088.25;;;6.77;73.10
72855;BME280;60991;51.278;22.550;2023-03-22T04:07:04;99083.56;;;6.79;73.44
72855;BME280;60991;51.278;22.550;2023-03-22T04:08:35;99084.28;;;6.86;73.41
72855;BME280;60991;51.278;22.550;2023-03-22T04:10:06;99084.78;;;6.76;73.70
72855;BME280;60991;51.278;22.550;2023-03-22T04:11:36;99081.13;;;6.77;73.79
72855;BME280;60991;51.278;22.550;2023-03-22T04:13:06;99080.91;;;6.79;73.02
72855;BME280;60991;51.278;22.550;2023-03-22T04:14:37;99086.94;;;6.86;73.37
72855;BME280;60991;51.278;22.550;2023-03-22T04:16:07;99088.28;;;6.88;72.61
72855;BME280;60991;51.278;22.550;2023-03-22T04:17:38;99080.38;;;6.88;71.94
72855;BME280;60991;51.278;22.550;2023-03-22T04:19:09;99091.97;;;6.87;72.71
72855;BME280;60991;51.278;22.550;2023-03-22T04:20:39;99088.97;;;6.84;71.67
72855;BME280;60991;51.278;22.550;2023-03-22T04:22:09;99101.00;;;6.80;71.36
72855;BME280;60991;51.278;22.550;2023-03-22T04:23:39;99090.50;;;6.73;71.42
72855;BME280;60991;51.278;22.550;2023-03-22T04:25:11;99088.75;;;6.67;71.32
72855;BME280;60991;51.278;22.550;2023-03-22T04:26:41;99095.13;;;6.59;71.42
72855;BME280;60991;51.278;22.550;2023-03-22T04:28:12;99087.25;;;6.53;71.80
72855;BME280;60991;51.278;22.550;2023-03-22T04:29:42;99100.31;;;6.48;72.33
72855;BME280;60991;51.278;22.550;2023-03-22T04:31:12;99095.31;;;6.40;72.23
72855;BME280;60991;51.278;22.550;2023-03-22T04:32:43;99089.88;;;6.35;72.00
72855;BME280;60991;51.278;22.550;2023-03-22T04:34:14;99094.75;;;6.31;72.49
72855;BME280;60991;51.278;22.550;2023-03-22T04:35:44;99093.41;;;6.29;72.73
72855;BME280;60991;51.278;22.550;2023-03-22T04:37:15;99097.41;;;6.31;72.34
72855;BME280;60991;51.278;22.550;2023-03-22T04:38:45;99095.81;;;6.30;72.41
72855;BME280;60991;51.278;22.550;2023-03-22T04:40:15;99096.25;;;6.27;72.25
72855;BME280;60991;51.278;22.550;2023-03-22T04:41:46;99102.16;;;6.22;71.69
72855;BME280;60991;51.278;22.550;2023-03-22T04:43:16;99102.19;;;6.16;71.45
72855;BME280;60991;51.278;22.550;2023-03-22T04:44:46;99111.78;;;6.10;71.96
72855;BME280;60991;51.278;22.550;2023-03-22T04:46:16;99106.41;;;5.99;72.17
72855;BME280;60991;51.278;22.550;2023-03-22T04:47:46;99112.09;;;5.96;72.31
72855;BME280;60991;51.278;22.550;2023-03-22T04:49:17;99101.19;;;5.92;72.54
72855;BME280;60991;51.278;22.550;2023-03-22T04:50:47;99101.63;;;5.89;72.40
72855;BME280;60991;51.278;22.550;2023-03-22T04:52:17;99102.22;;;5.91;72.85
72855;BME280;60991;51.278;22.550;2023-03-22T04:53:47;99100.19;;;5.86;73.04
72855;BME280;60991;51.278;22.550;2023-03-22T04:55:18;99104.25;;;5.82;72.97
72855;BME280;60991;51.278;22.550;2023-03-22T04:56:48;99098.81;;;5.77;73.30
72855;BME280;60991;51.278;22.550;2023-03-22T04:58:18;99097.00;;;5.78;73.48
72855;BME280;60991;51.278;22.550;2023-03-22T04:59:49;99092.53;;;5.78;73.95
72855;BME280;60991;51.278;22.550;2023-03-22T05:01:19;99100.81;;;5.82;73.56
72855;BME280;60991;51.278;22.550;2023-03-22T05:02:49;99102.25;;;5.78;73.62
72855;BME280;60991;51.278;22.550;2023-03-22T05:04:19;99105.09;;;5.76;74.02
72855;BME280;60991;51.278;22.550;2023-03-22T05:05:57;99102.72;;;5.75;73.53
72855;BME280;60991;51.278;22.550;2023-03-22T05:07:27;99100.63;;;5.52;74.84
72855;BME280;60991;51.278;22.550;2023-03-22T05:08:58;99101.00;;;5.55;74.93
72855;BME280;60991;51.278;22.550;2023-03-22T05:10:28;99102.66;;;5.50;75.18
72855;BME280;60991;51.278;22.550;2023-03-22T05:11:59;99103.06;;;5.47;75.82
72855;BME280;60991;51.278;22.550;2023-03-22T05:13:29;99104.28;;;5.44;76.18
72855;BME280;60991;51.278;22.550;2023-03-22T05:14:59;99100.75;;;5.64;75.67
72855;BME280;60991;51.278;22.550;2023-03-22T05:16:29;99108.34;;;5.78;75.12
72855;BME280;60991;51.278;22.550;2023-03-22T05:18:00;99107.09;;;5.81;74.92
72855;BME280;60991;51.278;22.550;2023-03-22T05:19:30;99102.66;;;5.81;75.13
72855;BME280;60991;51.278;22.550;2023-03-22T05:21:00;99101.25;;;5.79;75.06
72855;BME280;60991;51.278;22.550;2023-03-22T05:22:31;99103.47;;;5.75;75.20
72855;BME280;60991;51.278;22.550;2023-03-22T05:24:02;99103.34;;;5.70;76.16
72855;BME280;60991;51.278;22.550;2023-03-22T05:25:32;99105.09;;;5.76;75.61
72855;BME280;60991;51.278;22.550;2023-03-22T05:27:02;99100.84;;;5.75;75.43
72855;BME280;60991;51.278;22.550;2023-03-22T05:28:33;99103.34;;;5.70;76.27
72855;BME280;60991;51.278;22.550;2023-03-22T05:30:04;99104.03;;;5.84;75.82
72855;BME280;60991;51.278;22.550;2023-03-22T05:31:34;99102.31;;;6.03;75.44
72855;BME280;60991;51.278;22.550;2023-03-22T05:33:04;99105.06;;;5.89;75.56
72855;BME280;60991;51.278;22.550;2023-03-22T05:34:35;99101.00;;;5.87;76.05
72855;BME280;60991;51.278;22.550;2023-03-22T05:36:05;99101.09;;;5.74;76.45
72855;BME280;60991;51.278;22.550;2023-03-22T05:37:35;99107.16;;;5.74;76.59
72855;BME280;60991;51.278;22.550;2023-03-22T05:39:06;99098.59;;;5.79;76.63
72855;BME280;60991;51.278;22.550;2023-03-22T05:40:36;99103.06;;;5.78;76.96
72855;BME280;60991;51.278;22.550;2023-03-22T05:42:06;99103.88;;;5.79;77.08
72855;BME280;60991;51.278;22.550;2023-03-22T05:43:37;99104.25;;;5.89;77.18
72855;BME280;60991;51.278;22.550;2023-03-22T05:45:07;99104.84;;;5.91;77.04
72855;BME280;60991;51.278;22.550;2023-03-22T05:46:38;99102.31;;;6.03;76.87
72855;BME280;60991;51.278;22.550;2023-03-22T05:48:08;99105.84;;;6.15;76.79
72855;BME280;60991;51.278;22.550;2023-03-22T05:49:38;99106.25;;;6.18;76.81
72855;BME280;60991;51.278;22.550;2023-03-22T05:51:11;99106.94;;;6.32;76.47
72855;BME280;60991;51.278;22.550;2023-03-22T05:52:43;99110.28;;;6.46;75.79
72855;BME280;60991;51.278;22.550;2023-03-22T05:54:13;99112.09;;;6.45;76.12
72855;BME280;60991;51.278;22.550;2023-03-22T05:55:43;99110.19;;;6.52;75.47
72855;BME280;60991;51.278;22.550;2023-03-22T05:57:14;99114.97;;;6.62;75.35
72855;BME280;60991;51.278;22.550;2023-03-22T05:58:44;99113.66;;;6.71;75.18
72855;BME280;60991;51.278;22.550;2023-03-22T06:00:14;99111.81;;;6.72;75.50
72855;BME280;60991;51.278;22.550;2023-03-22T06:01:45;99119.09;;;6.76;75.51
72855;BME280;60991;51.278;22.550;2023-03-22T06:03:15;99124.63;;;6.68;76.29
72855;BME280;60991;51.278;22.550;2023-03-22T06:04:46;99119.13;;;6.70;75.67
72855;BME280;60991;51.278;22.550;2023-03-22T06:06:16;99130.59;;;6.64;76.10
72855;BME280;60991;51.278;22.550;2023-03-22T06:07:46;99128.53;;;6.66;76.42
72855;BME280;60991;51.278;22.550;2023-03-22T06:09:16;99122.97;;;6.74;76.70
72855;BME280;60991;51.278;22.550;2023-03-22T06:10:50;99119.88;;;6.77;75.73
72855;BME280;60991;51.278;22.550;2023-03-22T06:12:21;99120.06;;;6.82;76.52
72855;BME280;60991;51.278;22.550;2023-03-22T06:13:51;99117.25;;;6.95;75.63
72855;BME280;60991;51.278;22.550;2023-03-22T06:15:21;99120.16;;;7.05;75.73
72855;BME280;60991;51.278;22.550;2023-03-22T06:16:52;99119.63;;;7.03;75.91
72855;BME280;60991;51.278;22.550;2023-03-22T06:18:22;99119.09;;;6.94;76.71
72855;BME280;60991;51.278;22.550;2023-03-22T06:19:52;99127.75;;;7.02;76.02
72855;BME280;60991;51.278;22.550;2023-03-22T06:21:22;99129.28;;;7.09;76.30
72855;BME280;60991;51.278;22.550;2023-03-22T06:22:52;99126.41;;;7.11;76.62
72855;BME280;60991;51.278;22.550;2023-03-22T06:24:23;99126.94;;;7.19;76.21
72855;BME280;60991;51.278;22.550;2023-03-22T06:25:53;99128.66;;;7.25;75.97
72855;BME280;60991;51.278;22.550;2023-03-22T06:27:23;99130.97;;;7.04;76.95
72855;BME280;60991;51.278;22.550;2023-03-22T06:28:53;99129.16;;;7.04;77.42
72855;BME280;60991;51.278;22.550;2023-03-22T06:30:23;99130.44;;;7.13;76.59
72855;BME280;60991;51.278;22.550;2023-03-22T06:31:54;99126.78;;;7.14;76.54
72855;BME280;60991;51.278;22.550;2023-03-22T06:33:24;99128.66;;;7.25;77.17
72855;BME280;60991;51.278;22.550;2023-03-22T06:34:55;99125.28;;;7.37;76.51
72855;BME280;60991;51.278;22.550;2023-03-22T06:36:25;99124.84;;;7.40;76.45
72855;BME280;60991;51.278;22.550;2023-03-22T06:37:55;99126.94;;;7.49;75.76
72855;BME280;60991;51.278;22.550;2023-03-22T06:39:25;99124.66;;;7.53;75.74
72855;BME280;60991;51.278;22.550;2023-03-22T06:40:56;99127.56;;;7.63;74.87
72855;BME280;60991;51.278;22.550;2023-03-22T06:42:26;99130.72;;;7.72;75.18
72855;BME280;60991;51.278;22.550;2023-03-22T06:43:56;99128.66;;;7.74;74.99
72855;BME280;60991;51.278;22.550;2023-03-22T06:45:26;99135.31;;;7.76;75.30
72855;BME280;60991;51.278;22.550;2023-03-22T06:46:57;99133.38;;;7.83;74.77
72855;BME280;60991;51.278;22.550;2023-03-22T06:48:27;99133.56;;;7.70;74.93
72855;BME280;60991;51.278;22.550;2023-03-22T06:49:57;99135.03;;;7.66;75.49
72855;BME280;60991;51.278;22.550;2023-03-22T06:51:27;99136.28;;;7.63;76.07
72855;BME280;60991;51.278;22.550;2023-03-22T06:52:58;99135.41;;;7.70;75.56
72855;BME280;60991;51.278;22.550;2023-03-22T06:54:28;99138.19;;;7.75;75.79
72855;BME280;60991;51.278;22.550;2023-03-22T06:55:58;99130.38;;;7.80;75.29
72855;BME280;60991;51.278;22.550;2023-03-22T06:57:28;99136.47;;;7.80;75.84
72855;BME280;60991;51.278;22.550;2023-03-22T06:58:58;99138.81;;;7.88;75.30
72855;BME280;60991;51.278;22.550;2023-03-22T07:00:29;99135.03;;;7.96;74.88
72855;BME280;60991;51.278;22.550;2023-03-22T07:01:59;99132.84;;;7.93;74.63
72855;BME280;60991;51.278;22.550;2023-03-22T07:03:29;99142.97;;;7.96;75.13
72855;BME280;60991;51.278;22.550;2023-03-22T07:04:59;99132.63;;;8.06;74.83
72855;BME280;60991;51.278;22.550;2023-03-22T07:06:30;99140.69;;;8.11;75.11
72855;BME280;60991;51.278;22.550;2023-03-22T07:08:00;99134.34;;;8.00;74.54
72855;BME280;60991;51.278;22.550;2023-03-22T07:09:30;99144.91;;;8.00;75.09
72855;BME280;60991;51.278;22.550;2023-03-22T07:11:00;99138.72;;;7.95;75.50
72855;BME280;60991;51.278;22.550;2023-03-22T07:12:30;99134.13;;;8.02;75.32
72855;BME280;60991;51.278;22.550;2023-03-22T07:14:01;99135.72;;;7.91;75.72
72855;BME280;60991;51.278;22.550;2023-03-22T07:15:31;99129.34;;;7.81;76.28
72855;BME280;60991;51.278;22.550;2023-03-22T07:17:01;99132.69;;;7.76;77.01
72855;BME280;60991;51.278;22.550;2023-03-22T07:18:31;99131.28;;;7.74;76.94
72855;BME280;60991;51.278;22.550;2023-03-22T07:20:02;99118.88;;;7.74;76.93
72855;BME280;60991;51.278;22.550;2023-03-22T07:21:32;99135.13;;;7.89;76.27
72855;BME280;60991;51.278;22.550;2023-03-22T07:23:03;99131.59;;;7.95;75.85
72855;BME280;60991;51.278;22.550;2023-03-22T07:24:33;99134.56;;;7.99;75.42
72855;BME280;60991;51.278;22.550;2023-03-22T07:26:03;99134.31;;;7.89;76.31
72855;BME280;60991;51.278;22.550;2023-03-22T07:27:34;99132.63;;;7.94;76.01
72855;BME280;60991;51.278;22.550;2023-03-22T07:29:04;99131.91;;;7.99;75.50
72855;BME280;60991;51.278;22.550;2023-03-22T07:30:34;99128.13;;;7.95;75.70
72855;BME280;60991;51.278;22.550;2023-03-22T07:32:04;99126.97;;;7.91;76.14
72855;BME280;60991;51.278;22.550;2023-03-22T07:33:35;99130.31;;;7.98;76.54
72855;BME280;60991;51.278;22.550;2023-03-22T07:35:05;99126.31;;;8.07;76.36
72855;BME280;60991;51.278;22.550;2023-03-22T07:36:35;99141.06;;;8.15;75.49
72855;BME280;60991;51.278;22.550;2023-03-22T07:38:06;99138.75;;;8.18;75.71
72855;BME280;60991;51.278;22.550;2023-03-22T07:39:36;99129.31;;;8.22;75.96
72855;BME280;60991;51.278;22.550;2023-03-22T07:41:06;99133.25;;;8.31;75.81
72855;BME280;60991;51.278;22.550;2023-03-22T07:42:36;99132.72;;;8.41;75.07
72855;BME280;60991;51.278;22.550;2023-03-22T07:44:06;99132.84;;;8.46;75.11
72855;BME280;60991;51.278;22.550;2023-03-22T07:45:37;99128.34;;;8.47;75.16
72855;BME280;60991;51.278;22.550;2023-03-22T07:47:07;99125.91;;;8.57;75.28
72855;BME280;60991;51.278;22.550;2023-03-22T07:48:37;99129.16;;;8.59;74.86
72855;BME280;60991;51.278;22.550;2023-03-22T07:50:09;99132.84;;;8.70;74.49
72855;BME280;60991;51.278;22.550;2023-03-22T07:51:39;99129.16;;;8.71;74.84
72855;BME280;60991;51.278;22.550;2023-03-22T07:53:10;99133.41;;;8.72;75.14
72855;BME280;60991;51.278;22.550;2023-03-22T07:54:41;99131.69;;;8.65;75.37
72855;BME280;60991;51.278;22.550;2023-03-22T07:56:11;99140.19;;;8.67;75.32
72855;BME280;60991;51.278;22.550;2023-03-22T07:57:41;99134.69;;;8.69;74.94
72855;BME280;60991;51.278;22.550;2023-03-22T07:59:11;99124.31;;;8.56;75.43
72855;BME280;60991;51.278;22.550;2023-03-22T08:00:41;99124.44;;;8.61;75.41
72855;BME280;60991;51.278;22.550;2023-03-22T08:02:12;99124.91;;;8.70;74.90
72855;BME280;60991;51.278;22.550;2023-03-22T08:03:42;99123.84;;;8.82;74.90
72855;BME280;60991;51.278;22.550;2023-03-22T08:05:12;99132.59;;;8.83;74.85
72855;BME280;60991;51.278;22.550;2023-03-22T08:06:43;99127.97;;;8.78;74.62
72855;BME280;60991;51.278;22.550;2023-03-22T08:08:13;99126.59;;;8.76;75.10
72855;BME280;60991;51.278;22.550;2023-03-22T08:09:44;99130.41;;;8.80;74.98
72855;BME280;60991;51.278;22.550;2023-03-22T08:11:14;99121.16;;;8.94;74.75
72855;BME280;60991;51.278;22.550;2023-03-22T08:12:44;99122.78;;;9.07;74.67
72855;BME280;60991;51.278;22.550;2023-03-22T08:14:14;99122.16;;;9.16;74.98
72855;BME280;60991;51.278;22.550;2023-03-22T08:15:45;99121.22;;;9.22;74.49
72855;BME280;60991;51.278;22.550;2023-03-22T08:17:16;99136.78;;;9.19;74.19
72855;BME280;60991;51.278;22.550;2023-03-22T08:18:47;99116.59;;;9.29;74.05
72855;BME280;60991;51.278;22.550;2023-03-22T08:20:17;99120.38;;;9.33;73.92
72855;BME280;60991;51.278;22.550;2023-03-22T08:21:47;99120.81;;;9.42;73.85
72855;BME280;60991;51.278;22.550;2023-03-22T08:23:18;99125.88;;;9.44;73.90
72855;BME280;60991;51.278;22.550;2023-03-22T08:24:48;99110.69;;;9.39;73.66
72855;BME280;60991;51.278;22.550;2023-03-22T08:26:18;99112.81;;;9.54;73.44
72855;BME280;60991;51.278;22.550;2023-03-22T08:27:49;99122.94;;;9.57;73.82
72855;BME280;60991;51.278;22.550;2023-03-22T08:29:19;99120.47;;;9.67;73.17
72855;BME280;60991;51.278;22.550;2023-03-22T08:30:49;99121.84;;;9.69;73.35
72855;BME280;60991;51.278;22.550;2023-03-22T08:32:19;99115.38;;;9.77;73.30
72855;BME280;60991;51.278;22.550;2023-03-22T08:33:50;99122.19;;;9.90;72.73
72855;BME280;60991;51.278;22.550;2023-03-22T08:35:20;99124.63;;;9.91;72.89
72855;BME280;60991;51.278;22.550;2023-03-22T08:36:50;99124.72;;;9.96;72.31
72855;BME280;60991;51.278;22.550;2023-03-22T08:38:20;99122.69;;;10.03;72.66
72855;BME280;60991;51.278;22.550;2023-03-22T08:39:50;99123.59;;;10.09;71.57